Time;durP1;ratioP1;P1;durP2;ratioP2;P2;SDS_P1;SDS_P2;PMS_P1;PMS_P2;Temp;Humidity;BMP_temperature;BMP_pressure;BME280_temperature;BME280_humidity;BME280_pressure;Samples;Min_cycle;Max_cycle;Signal;HPM_P1;HPM_P2
2022/07/07 00:02:12;;;;;;;;;2.00;1.75;;;;;19.52;62.98;101996.44;5010647;28;8853;-66
2022/07/07 00:04:39;;;;;;;;;1.00;1.00;;;;;19.49;62.73;101989.53;5010967;28;8959;-66
2022/07/07 00:07:05;;;;;;;;;1.75;1.50;;;;;19.51;62.67;101990.13;5009558;28;8859;-67
2022/07/07 00:09:32;;;;;;;;;2.25;2.25;;;;;19.51;62.33;101975.66;5009589;28;8844;-66
2022/07/07 00:11:59;;;;;;;;;1.50;1.25;;;;;19.47;62.06;101967.06;4998686;28;8834;-66
2022/07/07 00:14:26;;;;;;;;;1.00;1.00;;;;;19.44;62.03;101972.16;4999138;28;8836;-65
2022/07/07 00:16:53;;;;;;;;;2.00;2.00;;;;;19.40;61.39;101960.84;4999322;28;8831;-66
2022/07/07 00:19:19;;;;;;;;;1.00;1.00;;;;;19.40;61.32;101957.28;4991104;28;8881;-64
2022/07/07 00:21:46;;;;;;;;;2.00;2.00;;;;;19.40;61.07;101957.28;4989891;28;8835;-65
2022/07/07 00:24:12;;;;;;;;;1.25;1.25;;;;;19.32;61.17;101957.56;4991497;28;9574;-67
2022/07/07 00:26:39;;;;;;;;;1.00;1.00;;;;;19.31;60.99;101969.56;4999965;28;8857;-65
2022/07/07 00:29:06;;;;;;;;;0.50;0.50;;;;;19.20;61.85;101969.25;5008960;28;8816;-65
2022/07/07 00:31:33;;;;;;;;;0.75;0.75;;;;;19.19;61.64;101964.81;5002679;28;8825;-65
2022/07/07 00:34:00;;;;;;;;;0.50;0.50;;;;;19.20;61.48;101958.34;5010506;28;8821;-66
2022/07/07 00:36:27;;;;;;;;;2.50;0.75;;;;;19.21;61.61;101954.53;5009537;28;8894;-66
2022/07/07 00:38:53;;;;;;;;;2.50;1.75;;;;;19.15;62.07;101958.16;5010257;28;8859;-68
2022/07/07 00:41:20;;;;;;;;;0.75;0.75;;;;;19.07;62.47;101961.16;5009113;28;8816;-66
2022/07/07 00:43:46;;;;;;;;;1.75;0.25;;;;;19.02;63.00;101961.00;5011064;28;8821;-65
2022/07/07 00:46:13;;;;;;;;;0.00;0.00;;;;;19.00;62.86;101957.69;5007908;28;8954;-65
2022/07/07 00:48:40;;;;;;;;;1.00;1.00;;;;;18.98;63.07;101963.34;5012504;28;8862;-66
2022/07/07 00:51:10;;;;;;;;;2.00;1.00;;;;;19.00;63.32;101968.59;5013709;28;9528;-66
2022/07/07 00:53:38;;;;;;;;;1.00;1.00;;;;;18.94;63.86;101966.75;5013476;28;9552;-65
2022/07/07 00:56:05;;;;;;;;;1.00;1.00;;;;;18.81;65.16;101973.13;5028680;28;8812;-65
2022/07/07 00:58:33;;;;;;;;;1.25;0.00;;;;;18.70;65.81;101971.13;5012691;28;8939;-64
2022/07/07 01:01:01;;;;;;;;;0.75;0.75;;;;;18.63;66.86;101987.47;5013857;28;8844;-65
2022/07/07 01:03:29;;;;;;;;;1.00;1.00;;;;;18.53;67.61;101974.34;5013026;28;8829;-66
2022/07/07 01:05:57;;;;;;;;;0.75;0.75;;;;;18.51;68.06;101970.16;4998797;28;8850;-65
2022/07/07 01:08:24;;;;;;;;;0.00;0.00;;;;;18.50;68.46;101963.03;4993643;28;8961;-66
2022/07/07 01:10:50;;;;;;;;;1.00;1.00;;;;;18.47;68.35;101958.00;5007150;28;8918;-66
2022/07/07 01:13:17;;;;;;;;;2.25;1.75;;;;;18.42;68.47;101963.28;5007761;28;8883;-65
2022/07/07 01:15:43;;;;;;;;;3.00;1.00;;;;;18.42;68.41;101949.66;5012742;28;8820;-66
2022/07/07 01:18:10;;;;;;;;;0.50;0.50;;;;;18.36;68.52;101943.22;5006314;28;8839;-66
2022/07/07 01:20:37;;;;;;;;;1.50;1.50;;;;;18.31;68.49;101948.50;4999058;28;8819;-66
2022/07/07 01:23:03;;;;;;;;;4.50;1.50;;;;;18.32;68.47;101941.16;5012566;28;8813;-65
2022/07/07 01:25:30;;;;;;;;;3.00;3.00;;;;;18.25;68.26;101931.09;5011913;28;8923;-66
2022/07/07 01:27:56;;;;;;;;;1.00;1.00;;;;;18.20;68.93;101933.66;4998911;28;8823;-65
2022/07/07 01:30:24;;;;;;;;;2.25;2.25;;;;;18.24;68.86;101924.00;4993260;28;8823;-65
2022/07/07 01:32:50;;;;;;;;;2.00;1.50;;;;;18.24;69.10;101924.00;5007041;28;8951;-65
2022/07/07 01:35:17;;;;;;;;;1.50;1.50;;;;;18.26;69.22;101927.31;5012246;28;8836;-65
2022/07/07 01:37:43;;;;;;;;;3.00;1.00;;;;;18.29;69.17;101923.31;5012276;28;8967;-64
2022/07/07 01:40:10;;;;;;;;;2.00;1.75;;;;;18.29;69.20;101924.16;5006774;28;8831;-65
2022/07/07 01:42:36;;;;;;;;;1.00;1.00;;;;;18.29;69.25;101915.16;5009783;28;9469;-65
2022/07/07 01:45:03;;;;;;;;;1.25;1.25;;;;;18.28;69.28;101922.50;5025472;28;8824;-65
2022/07/07 01:47:31;;;;;;;;;2.50;2.50;;;;;18.32;69.38;101922.91;5012065;28;8857;-65
2022/07/07 01:49:57;;;;;;;;;2.00;2.00;;;;;18.35;69.37;101908.84;5012370;28;8952;-66
2022/07/07 01:52:23;;;;;;;;;3.75;3.00;;;;;18.36;69.24;101898.75;5012324;28;8829;-67
2022/07/07 01:54:50;;;;;;;;;2.50;1.00;;;;;18.32;69.54;101908.44;5003189;28;8839;-66
2022/07/07 01:57:17;;;;;;;;;2.75;2.75;;;;;18.28;69.48;101908.88;5005194;28;8945;-66
2022/07/07 01:59:43;;;;;;;;;1.00;1.00;;;;;18.27;69.60;101903.63;5009954;28;8828;-66
2022/07/07 02:02:10;;;;;;;;;3.50;3.50;;;;;18.25;69.91;101901.13;5001710;28;9619;-66
2022/07/07 02:04:36;;;;;;;;;2.00;2.00;;;;;18.24;69.74;101896.72;4997625;28;8836;-66
2022/07/07 02:07:03;;;;;;;;;3.00;2.50;;;;;18.23;70.02;101908.69;5011738;28;8848;-66
2022/07/07 02:09:29;;;;;;;;;2.00;1.75;;;;;18.19;70.39;101893.84;5011782;28;8824;-65
2022/07/07 02:11:56;;;;;;;;;2.00;2.00;;;;;18.22;70.42;101904.28;5011978;28;8884;-66
2022/07/07 02:14:22;;;;;;;;;4.25;3.50;;;;;18.28;70.45;101892.50;5009178;28;8872;-66
2022/07/07 02:16:49;;;;;;;;;2.75;2.00;;;;;18.29;70.13;101896.91;5011587;28;8848;-65
2022/07/07 02:19:15;;;;;;;;;4.75;2.25;;;;;18.29;70.27;101910.53;5011434;28;8881;-66
2022/07/07 02:21:42;;;;;;;;;3.25;3.00;;;;;18.22;70.43;101887.91;5011688;28;8832;-66
2022/07/07 02:24:08;;;;;;;;;3.75;3.00;;;;;18.15;70.87;101897.19;5011501;28;8808;-65
2022/07/07 02:26:35;;;;;;;;;1.75;1.25;;;;;18.13;70.88;101889.25;5009886;28;8905;-64
2022/07/07 02:29:03;;;;;;;;;2.00;2.00;;;;;18.08;71.02;101878.19;5010360;28;8837;-65
2022/07/07 02:31:30;;;;;;;;;3.00;2.75;;;;;18.06;70.89;101891.16;5011567;28;8828;-65
2022/07/07 02:33:57;;;;;;;;;2.00;2.00;;;;;18.06;70.89;101890.34;5011421;28;8816;-65
2022/07/07 02:36:24;;;;;;;;;2.00;2.00;;;;;18.05;71.04;101881.31;5011464;28;8809;-65
2022/07/07 02:38:50;;;;;;;;;6.50;4.00;;;;;18.00;70.92;101898.34;5011233;28;8855;-66
2022/07/07 02:41:17;;;;;;;;;4.00;3.00;;;;;18.01;70.72;101896.44;5009898;28;9629;-65
2022/07/07 02:43:43;;;;;;;;;1.50;1.50;;;;;18.03;70.49;101903.34;5011340;28;8824;-65
2022/07/07 02:46:10;;;;;;;;;2.00;2.00;;;;;18.00;70.44;101897.50;5011171;28;8841;-65
2022/07/07 02:48:37;;;;;;;;;1.00;1.00;;;;;17.99;70.45;101901.28;5011135;28;8825;-64
2022/07/07 02:51:04;;;;;;;;;0.25;0.25;;;;;18.00;70.26;101895.63;4999383;28;8819;-66
2022/07/07 02:53:30;;;;;;;;;3.75;2.25;;;;;18.04;70.07;101905.03;4991325;28;8951;-67
2022/07/07 02:55:57;;;;;;;;;1.00;1.00;;;;;18.01;69.86;101901.88;5009595;28;8821;-67
2022/07/07 02:58:23;;;;;;;;;1.00;1.00;;;;;17.99;69.69;101906.75;5010450;28;8914;-67
2022/07/07 03:00:51;;;;;;;;;0.75;0.75;;;;;17.97;69.44;101906.94;5005356;28;8840;-67
2022/07/07 03:03:18;;;;;;;;;0.25;0.25;;;;;17.93;69.20;101902.16;5002558;28;9519;-66
2022/07/07 03:05:45;;;;;;;;;2.50;1.00;;;;;17.90;69.50;101900.69;5010098;28;8808;-67
2022/07/07 03:08:13;;;;;;;;;0.75;0.75;;;;;17.82;69.67;101908.25;5010149;28;8868;-64
2022/07/07 03:10:41;;;;;;;;;1.00;1.00;;;;;17.82;69.44;101911.00;4981595;28;9319;-66
2022/07/07 03:13:07;;;;;;;;;0.25;0.25;;;;;17.75;70.00;101906.41;4997802;28;8911;-66
2022/07/07 03:15:34;;;;;;;;;1.00;1.00;;;;;17.73;69.92;101905.75;4998988;28;8922;-66
2022/07/07 03:18:00;;;;;;;;;1.00;1.00;;;;;17.73;70.42;101907.66;4990984;28;8853;-65
2022/07/07 03:20:27;;;;;;;;;0.00;0.00;;;;;17.74;70.37;101907.47;5006371;28;8820;-66
2022/07/07 03:22:54;;;;;;;;;1.00;0.00;;;;;17.72;70.86;101909.53;5010192;28;9026;-66
2022/07/07 03:25:20;;;;;;;;;0.75;0.75;;;;;17.70;70.87;101911.66;5010289;28;8821;-65
2022/07/07 03:27:47;;;;;;;;;0.50;0.00;;;;;17.70;70.58;101914.38;4996636;28;8840;-65
2022/07/07 03:30:13;;;;;;;;;0.00;0.00;;;;;17.65;70.37;101916.88;5000704;28;8911;-66
2022/07/07 03:32:40;;;;;;;;;0.75;0.00;;;;;17.63;70.60;101919.00;5009798;28;8894;-66
2022/07/07 03:35:10;;;;;;;;;0.00;0.00;;;;;17.66;70.42;101921.31;5006983;28;8848;-65
2022/07/07 03:37:36;;;;;;;;;0.25;0.25;;;;;17.62;70.18;101921.91;5025306;28;8863;-65
2022/07/07 03:40:06;;;;;;;;;0.00;0.00;;;;;17.57;69.76;101919.84;5009491;28;8852;-65
2022/07/07 03:42:36;;;;;;;;;1.75;1.00;;;;;17.50;69.49;101921.75;5000271;28;8835;-65
2022/07/07 03:45:03;;;;;;;;;0.00;0.00;;;;;17.48;69.07;101923.88;4999395;28;8853;-65
2022/07/07 03:47:29;;;;;;;;;0.00;0.00;;;;;17.46;68.92;101926.81;5007904;28;8867;-65
2022/07/07 03:49:56;;;;;;;;;0.00;0.00;;;;;17.43;68.66;101927.22;5009100;28;8851;-65
2022/07/07 03:52:22;;;;;;;;;0.50;0.50;;;;;17.39;68.04;101931.44;5010411;28;8918;-65
2022/07/07 03:54:49;;;;;;;;;0.00;0.00;;;;;17.37;68.84;101927.22;5010102;28;8840;-65
2022/07/07 03:57:15;;;;;;;;;1.25;1.25;;;;;17.31;68.66;101928.94;5009849;28;8825;-64
2022/07/07 03:59:42;;;;;;;;;0.00;0.00;;;;;17.30;68.67;101928.09;5003788;28;8864;-65
2022/07/07 04:02:09;;;;;;;;;0.00;0.00;;;;;17.34;68.84;101931.22;4996270;28;8825;-66
2022/07/07 04:04:36;;;;;;;;;1.50;1.50;;;;;17.33;68.06;101939.59;5003781;28;8899;-66
2022/07/07 04:07:03;;;;;;;;;1.75;0.00;;;;;17.34;68.41;101938.53;5009023;28;8840;-64
2022/07/07 04:09:29;;;;;;;;;0.00;0.00;;;;;17.33;68.00;101942.31;5000756;28;8841;-66
2022/07/07 04:11:56;;;;;;;;;0.00;0.00;;;;;17.30;68.31;101947.16;5009044;28;8847;-65
2022/07/07 04:14:22;;;;;;;;;0.00;0.00;;;;;17.34;68.12;101957.59;4993823;28;8938;-66
2022/07/07 04:16:49;;;;;;;;;0.00;0.00;;;;;17.27;67.88;101957.63;5009701;28;8844;-67
2022/07/07 04:19:15;;;;;;;;;0.00;0.00;;;;;17.23;68.24;101953.66;5012607;28;8848;-66
2022/07/07 04:21:42;;;;;;;;;0.00;0.00;;;;;17.22;68.23;101952.81;5002223;28;8867;-66
2022/07/07 04:24:08;;;;;;;;;0.00;0.00;;;;;17.21;67.69;101962.00;5011407;28;8967;-67
2022/07/07 04:26:35;;;;;;;;;1.50;0.75;;;;;17.21;67.75;101959.28;5002713;28;8837;-65
2022/07/07 04:29:02;;;;;;;;;0.00;0.00;;;;;17.17;66.81;101971.63;5003634;28;8832;-65
2022/07/07 04:31:28;;;;;;;;;0.50;0.00;;;;;17.13;66.84;101967.66;5014092;28;8906;-66
2022/07/07 04:33:55;;;;;;;;;1.00;0.00;;;;;17.10;67.10;101970.81;5014270;28;8871;-67
2022/07/07 04:36:22;;;;;;;;;1.00;1.00;;;;;17.13;66.85;101973.09;5010676;28;8950;-65
2022/07/07 04:38:48;;;;;;;;;2.00;1.00;;;;;17.19;66.75;101974.16;5011417;28;8978;-66
2022/07/07 04:41:15;;;;;;;;;0.75;0.50;;;;;17.23;66.67;101976.25;5001629;28;8827;-66
2022/07/07 04:43:41;;;;;;;;;1.00;0.50;;;;;17.26;66.34;101975.00;4994003;28;8839;-65
2022/07/07 04:46:08;;;;;;;;;0.25;0.25;;;;;17.27;66.34;101982.94;5011853;28;8813;-66
2022/07/07 04:48:34;;;;;;;;;0.50;0.00;;;;;17.32;66.36;101986.91;5013215;28;8907;-64
2022/07/07 04:51:01;;;;;;;;;1.00;1.00;;;;;17.35;65.63;101989.22;5005450;28;8827;-66
2022/07/07 04:53:27;;;;;;;;;0.00;0.00;;;;;17.32;65.53;101997.81;5008914;28;8895;-66
2022/07/07 04:55:54;;;;;;;;;0.25;0.25;;;;;17.30;66.00;101996.13;5012341;28;8821;-65
2022/07/07 04:58:21;;;;;;;;;0.75;0.75;;;;;17.28;65.53;101990.06;5012820;28;8914;-65
2022/07/07 05:00:47;;;;;;;;;2.50;1.00;;;;;17.26;65.64;101999.50;5009335;28;8821;-66
2022/07/07 05:03:14;;;;;;;;;0.00;0.00;;;;;17.24;65.49;101991.53;5013049;28;8825;-65
2022/07/07 05:05:40;;;;;;;;;1.00;0.00;;;;;17.25;65.43;101995.06;5012435;28;8824;-64
2022/07/07 05:08:07;;;;;;;;;1.00;1.00;;;;;17.22;65.23;102001.78;5012768;28;8843;-66
2022/07/07 05:10:33;;;;;;;;;2.00;2.00;;;;;17.19;65.34;101996.75;5004229;28;9029;-65
2022/07/07 05:13:00;;;;;;;;;1.00;0.75;;;;;17.20;65.22;102009.31;5008065;28;9116;-64
2022/07/07 05:15:26;;;;;;;;;0.00;0.00;;;;;17.21;65.53;102010.97;5005690;28;8824;-65
2022/07/07 05:17:53;;;;;;;;;0.75;0.00;;;;;17.20;64.71;102013.94;5012518;28;8934;-65
2022/07/07 05:20:25;;;;;;;;;1.00;1.00;;;;;17.21;65.14;102027.31;5009888;28;8825;-65
2022/07/07 05:22:51;;;;;;;;;1.00;0.00;;;;;17.25;65.29;102036.72;5006942;28;8848;-66
2022/07/07 05:25:18;;;;;;;;;1.00;1.00;;;;;17.17;64.71;102036.09;5003265;28;8831;-65
2022/07/07 05:27:44;;;;;;;;;1.00;1.00;;;;;17.11;65.16;102034.22;5009479;28;8824;-67
2022/07/07 05:30:16;;;;;;;;;0.25;0.25;;;;;17.04;65.03;102035.06;5008076;28;8827;-67
2022/07/07 05:32:43;;;;;;;;;0.50;0.50;;;;;16.99;65.35;102029.41;5004390;28;8922;-66
2022/07/07 05:35:09;;;;;;;;;0.00;0.00;;;;;16.97;65.12;102041.53;5008716;28;8930;-66
2022/07/07 05:37:36;;;;;;;;;0.00;0.00;;;;;16.93;65.11;102043.81;5005863;28;8820;-67
2022/07/07 05:40:03;;;;;;;;;0.00;0.00;;;;;16.98;65.89;102049.50;5003956;28;8863;-66
2022/07/07 05:42:30;;;;;;;;;0.00;0.00;;;;;17.16;66.22;102057.03;5027202;28;9551;-66
2022/07/07 05:44:56;;;;;;;;;1.00;0.00;;;;;17.23;65.88;102054.34;5011761;28;8832;-66
2022/07/07 05:47:22;;;;;;;;;0.00;0.00;;;;;17.24;65.83;102064.16;5007260;28;8975;-65
2022/07/07 05:49:49;;;;;;;;;0.00;0.00;;;;;17.18;65.75;102059.56;5009023;28;8816;-65
2022/07/07 05:52:15;;;;;;;;;0.00;0.00;;;;;17.12;65.46;102071.28;4999958;28;8902;-65
2022/07/07 05:54:42;;;;;;;;;0.00;0.00;;;;;17.03;64.73;102073.34;5019238;28;8853;-66
2022/07/07 05:57:08;;;;;;;;;0.75;0.75;;;;;16.91;65.00;102075.84;5005124;28;8825;-66
2022/07/07 05:59:35;;;;;;;;;0.00;0.00;;;;;16.91;65.87;102072.28;5011659;28;8931;-66
2022/07/07 06:02:01;;;;;;;;;0.00;0.00;;;;;16.94;66.13;102090.91;5011035;28;8836;-66
2022/07/07 06:04:28;;;;;;;;;0.00;0.00;;;;;16.89;66.81;102105.13;5012370;28;8840;-66
2022/07/07 06:06:54;;;;;;;;;1.00;0.00;;;;;16.70;68.38;102097.72;5005934;28;8837;-66
2022/07/07 06:09:23;;;;;;;;;0.00;0.00;;;;;16.71;68.88;102093.97;5011075;28;8817;-66
2022/07/07 06:11:50;;;;;;;;;0.00;0.00;;;;;16.77;68.88;102096.75;5011387;28;8975;-64
2022/07/07 06:14:16;;;;;;;;;0.00;0.00;;;;;16.79;68.62;102097.34;5010975;28;8868;-66
2022/07/07 06:16:43;;;;;;;;;0.75;0.00;;;;;16.77;68.54;102095.88;5006867;28;8991;-66
2022/07/07 06:19:11;;;;;;;;;0.00;0.00;;;;;16.81;68.58;102105.31;5010314;28;8828;-65
2022/07/07 06:21:39;;;;;;;;;0.75;0.00;;;;;16.82;68.89;102104.28;5011186;28;9562;-65
2022/07/07 06:24:06;;;;;;;;;0.00;0.00;;;;;16.75;68.56;102103.41;5010866;28;8839;-67
2022/07/07 06:26:33;;;;;;;;;0.00;0.00;;;;;16.76;68.43;102115.97;5011157;28;8875;-67
2022/07/07 06:29:02;;;;;;;;;0.00;0.00;;;;;16.65;68.27;102108.34;5010832;28;8852;-66
2022/07/07 06:31:29;;;;;;;;;0.75;0.75;;;;;16.65;68.30;102114.66;5011390;28;8821;-64
2022/07/07 06:33:55;;;;;;;;;0.25;0.25;;;;;16.65;68.20;102125.53;5008586;28;8848;-65
2022/07/07 06:36:22;;;;;;;;;0.25;0.00;;;;;16.68;68.17;102124.25;5002996;28;8851;-66
2022/07/07 06:38:48;;;;;;;;;0.00;0.00;;;;;16.72;67.80;102112.78;5025013;28;8966;-65
2022/07/07 06:41:16;;;;;;;;;2.00;0.00;;;;;16.80;68.18;102111.78;5009396;28;8942;-64
2022/07/07 06:43:43;;;;;;;;;0.50;0.00;;;;;16.86;68.09;102121.03;5010936;28;8832;-65
2022/07/07 06:46:09;;;;;;;;;1.50;0.00;;;;;16.93;68.11;102124.59;5007393;28;8820;-65
2022/07/07 06:48:36;;;;;;;;;1.00;0.00;;;;;16.96;68.36;102130.47;5006619;28;8848;-66
2022/07/07 06:51:02;;;;;;;;;0.50;0.50;;;;;16.97;68.27;102125.84;5007981;28;8959;-67
2022/07/07 06:53:29;;;;;;;;;0.00;0.00;;;;;16.91;68.19;102123.97;5010845;28;8969;-65
2022/07/07 06:55:56;;;;;;;;;1.00;1.00;;;;;16.85;68.51;102135.66;5010589;28;8829;-64
2022/07/07 06:58:23;;;;;;;;;0.00;0.00;;;;;16.80;68.30;102133.53;4998703;28;8824;-66
2022/07/07 07:00:49;;;;;;;;;1.00;1.00;;;;;16.79;68.49;102138.16;5006941;28;8955;-66
2022/07/07 07:03:16;;;;;;;;;1.50;0.00;;;;;16.89;68.01;102142.34;5006159;28;8924;-66
2022/07/07 07:05:42;;;;;;;;;0.00;0.00;;;;;16.97;67.10;102137.56;5001217;28;8839;-65
2022/07/07 07:08:09;;;;;;;;;2.00;0.00;;;;;17.13;66.39;102141.78;4990618;28;8858;-65
2022/07/07 07:10:35;;;;;;;;;0.00;0.00;;;;;17.23;65.33;102149.56;4995437;28;8797;-66
2022/07/07 07:13:03;;;;;;;;;0.00;0.00;;;;;17.25;65.09;102142.84;5005365;28;8906;-64
2022/07/07 07:15:29;;;;;;;;;0.00;0.00;;;;;17.28;65.19;102157.94;5007351;28;9590;-65
2022/07/07 07:17:56;;;;;;;;;0.00;0.00;;;;;17.24;65.23;102148.53;5002867;28;8943;-65
2022/07/07 07:20:25;;;;;;;;;0.00;0.00;;;;;17.28;65.48;102145.19;5002911;28;8865;-64
2022/07/07 07:22:52;;;;;;;;;0.00;0.00;;;;;17.37;65.11;102161.31;4998641;28;8817;-64
2022/07/07 07:25:19;;;;;;;;;0.00;0.00;;;;;17.40;64.67;102152.75;5004196;28;8939;-65
2022/07/07 07:27:45;;;;;;;;;1.00;0.25;;;;;17.34;64.67;102161.72;5002952;28;8831;-66
2022/07/07 07:30:14;;;;;;;;;1.25;0.00;;;;;17.24;65.58;102168.41;5007435;28;8825;-66
2022/07/07 07:32:42;;;;;;;;;0.00;0.00;;;;;17.21;67.01;102167.97;5005657;28;8914;-64
2022/07/07 07:35:08;;;;;;;;;0.00;0.00;;;;;17.07;67.22;102172.56;5007257;28;8951;-63
2022/07/07 07:37:38;;;;;;;;;1.00;0.00;;;;;16.96;67.22;102168.53;5009224;28;8821;-65
2022/07/07 07:40:06;;;;;;;;;0.00;0.00;;;;;16.98;67.35;102171.06;5009391;28;8986;-66
2022/07/07 07:42:39;;;;;;;;;0.00;0.00;;;;;17.10;67.44;102172.16;5010209;28;8951;-66
2022/07/07 07:45:09;;;;;;;;;0.00;0.00;;;;;17.09;67.37;102180.50;5010051;28;9249;-65
2022/07/07 07:47:38;;;;;;;;;0.25;0.00;;;;;17.05;67.14;102185.50;5010288;28;8829;-66
2022/07/07 07:50:05;;;;;;;;;0.25;0.00;;;;;17.04;68.11;102190.13;5009704;28;8991;-65
2022/07/07 07:52:32;;;;;;;;;0.00;0.00;;;;;16.99;68.97;102191.78;5011830;28;8836;-66
2022/07/07 07:54:58;;;;;;;;;0.00;0.00;;;;;16.96;68.67;102190.31;5012241;28;8819;-66
2022/07/07 07:57:25;;;;;;;;;0.00;0.00;;;;;16.86;68.36;102192.56;5010833;28;8860;-65
2022/07/07 07:59:51;;;;;;;;;0.50;0.50;;;;;16.90;68.01;102187.56;5013638;28;8955;-65
2022/07/07 08:02:17;;;;;;;;;0.00;0.00;;;;;16.96;68.05;102187.56;5016686;28;9622;-67
2022/07/07 08:04:44;;;;;;;;;1.00;0.00;;;;;17.02;67.87;102185.94;5016622;28;8985;-64
2022/07/07 08:07:11;;;;;;;;;0.00;0.00;;;;;17.13;67.97;102184.50;5010953;28;8839;-64
2022/07/07 08:09:37;;;;;;;;;0.00;0.00;;;;;17.18;67.67;102185.56;5015715;28;8875;-64
2022/07/07 08:12:04;;;;;;;;;1.00;0.00;;;;;17.26;67.79;102187.28;5008732;28;8836;-66
2022/07/07 08:14:31;;;;;;;;;0.00;0.00;;;;;17.34;66.97;102191.66;5015835;28;8948;-64
2022/07/07 08:16:57;;;;;;;;;0.00;0.00;;;;;17.28;67.38;102201.50;5014953;28;8935;-65
2022/07/07 08:19:24;;;;;;;;;1.50;0.00;;;;;17.27;67.67;102214.28;5017106;28;8871;-64
2022/07/07 08:21:51;;;;;;;;;0.00;0.00;;;;;17.13;69.20;102214.41;5017713;28;8891;-64
2022/07/07 08:24:17;;;;;;;;;1.00;0.00;;;;;17.04;69.76;102211.88;5017118;28;8841;-66
2022/07/07 08:26:44;;;;;;;;;0.00;0.00;;;;;17.09;70.05;102215.88;5009927;28;9866;-64
2022/07/07 08:29:10;;;;;;;;;0.00;0.00;;;;;17.10;70.47;102221.13;5010717;28;9011;-64
2022/07/07 08:31:37;;;;;;;;;0.00;0.00;;;;;17.14;70.46;102222.41;5015867;28;8832;-65
2022/07/07 08:34:03;;;;;;;;;0.50;0.00;;;;;17.14;70.07;102219.69;5011037;28;8813;-65
2022/07/07 08:36:32;;;;;;;;;0.00;0.00;;;;;17.10;70.61;102214.84;5012983;28;8809;-64
2022/07/07 08:38:59;;;;;;;;;0.00;0.00;;;;;17.19;69.88;102222.63;5007448;28;8827;-65
2022/07/07 08:41:26;;;;;;;;;0.00;0.00;;;;;17.32;69.92;102223.69;5030930;28;8848;-65
2022/07/07 08:43:55;;;;;;;;;0.25;0.00;;;;;17.50;69.96;102219.34;5015220;28;8817;-64
2022/07/07 08:46:22;;;;;;;;;0.75;0.25;;;;;17.68;69.51;102218.75;5017074;28;8919;-63
2022/07/07 08:48:50;;;;;;;;;0.00;0.00;;;;;17.70;68.79;102218.53;5016685;28;8867;-64
2022/07/07 08:51:17;;;;;;;;;0.75;0.00;;;;;17.81;68.04;102230.72;5015051;28;8883;-64
2022/07/07 08:53:46;;;;;;;;;0.50;0.00;;;;;17.62;67.59;102244.06;5016379;28;8930;-64
2022/07/07 08:56:14;;;;;;;;;0.00;0.00;;;;;17.47;68.02;102238.81;5017439;28;8839;-65
2022/07/07 08:58:42;;;;;;;;;0.00;0.00;;;;;17.39;68.74;102247.19;5018186;28;8824;-65
2022/07/07 09:01:29;;;;;;;;;1.00;1.00;;;;;17.39;68.73;102240.91;5017234;28;8918;-65
2022/07/07 09:03:55;;;;;;;;;1.00;0.25;;;;;17.45;68.44;102245.50;5013320;28;8867;-65
2022/07/07 09:06:22;;;;;;;;;2.00;0.00;;;;;17.55;67.81;102248.69;5016271;28;8840;-64
2022/07/07 09:08:51;;;;;;;;;0.00;0.00;;;;;17.63;67.87;102251.22;5010844;28;8914;-65
2022/07/07 09:11:28;;;;;;;;;0.50;0.25;;;;;17.72;66.96;102251.84;5015819;28;8926;-66
2022/07/07 09:14:17;;;;;;;;;0.00;0.00;;;;;17.72;67.39;102260.03;5017003;28;8841;-65
2022/07/07 09:16:43;;;;;;;;;1.00;1.00;;;;;17.70;67.13;102276.59;5007227;28;8852;-65
2022/07/07 09:19:21;;;;;;;;;0.25;0.25;;;;;17.61;67.43;102280.50;5016619;28;9547;-65
2022/07/07 09:21:48;;;;;;;;;1.00;0.75;;;;;17.54;67.90;102283.25;5016657;28;8918;-65
2022/07/07 09:24:15;;;;;;;;;1.00;1.00;;;;;17.45;68.63;102283.63;5014562;28;8918;-66
2022/07/07 09:26:44;;;;;;;;;1.00;1.00;;;;;17.46;69.44;102294.31;5014656;28;8824;-65
2022/07/07 09:29:18;;;;;;;;;2.00;1.00;;;;;17.48;68.95;102296.81;5015753;28;9213;-65
2022/07/07 09:32:00;;;;;;;;;1.75;1.00;;;;;17.49;68.54;102295.78;5016552;28;8849;-66
2022/07/07 09:34:31;;;;;;;;;0.50;0.50;;;;;17.41;68.65;102301.41;5014245;28;8817;-67
2022/07/07 09:39:50;;;;;;;;;0.00;0.00;;;;;17.37;70.29;102308.28;5015542;28;9014;-66
2022/07/07 09:42:36;;;;;;;;;1.75;0.00;;;;;17.47;70.58;102316.94;5008971;28;8880;-66
2022/07/07 09:45:09;;;;;;;;;1.75;0.00;;;;;17.60;70.50;102314.25;5007987;28;8837;-67
2022/07/07 09:47:36;;;;;;;;;0.00;0.00;;;;;17.70;70.09;102322.00;5004962;28;8858;-66
2022/07/07 09:50:09;;;;;;;;;0.00;0.00;;;;;17.83;69.94;102322.09;5013392;28;8863;-66
2022/07/07 09:52:38;;;;;;;;;2.50;2.00;;;;;17.93;69.24;102324.41;5011403;28;8922;-66
2022/07/07 09:55:08;;;;;;;;;0.00;0.00;;;;;18.02;68.77;102334.06;5009311;28;8954;-66
2022/07/07 09:57:36;;;;;;;;;2.25;1.00;;;;;18.06;68.02;102339.94;5007697;28;8860;-66
2022/07/07 10:00:04;;;;;;;;;1.00;1.00;;;;;17.96;66.68;102348.53;5013917;28;8813;-65
2022/07/07 10:02:39;;;;;;;;;0.75;0.00;;;;;17.81;67.49;102362.31;5013182;28;8825;-65
2022/07/07 10:05:06;;;;;;;;;1.25;0.75;;;;;17.61;68.45;102356.75;5014216;28;8869;-65
2022/07/07 10:07:34;;;;;;;;;0.00;0.00;;;;;17.50;69.30;102366.38;5008900;28;8829;-67
2022/07/07 10:10:04;;;;;;;;;2.00;0.00;;;;;17.46;69.83;102373.28;5004411;28;8856;-65
2022/07/07 10:12:32;;;;;;;;;0.75;0.75;;;;;17.36;70.16;102363.78;5009049;28;8825;-65
2022/07/07 10:15:04;;;;;;;;;0.00;0.00;;;;;17.39;70.00;102369.66;5010169;28;8817;-66
2022/07/07 10:17:31;;;;;;;;;0.00;0.00;;;;;17.44;70.23;102374.50;5010524;28;8966;-65
2022/07/07 10:19:58;;;;;;;;;1.00;0.00;;;;;17.48;69.84;102373.06;5008042;28;8930;-64
2022/07/07 10:22:28;;;;;;;;;0.00;0.00;;;;;17.57;69.42;102379.16;5011184;28;9542;-66
2022/07/07 10:24:55;;;;;;;;;1.25;0.25;;;;;17.66;68.96;102378.81;5001932;28;8840;-65
2022/07/07 10:27:27;;;;;;;;;0.00;0.00;;;;;17.71;68.90;102391.81;5013091;28;8804;-66
2022/07/07 10:29:55;;;;;;;;;1.00;0.00;;;;;17.69;68.96;102400.16;5011640;28;8869;-64
2022/07/07 10:32:51;;;;;;;;;1.00;0.00;;;;;17.52;69.28;102416.00;5011497;28;8821;-64
2022/07/07 10:35:18;;;;;;;;;0.00;0.00;;;;;17.49;69.16;102416.41;5026075;28;8828;-65
2022/07/07 10:37:45;;;;;;;;;0.00;0.00;;;;;17.39;69.19;102421.38;5010051;28;8841;-64
2022/07/07 10:40:18;;;;;;;;;0.25;0.00;;;;;17.35;69.13;102425.56;5010764;28;8845;-64
2022/07/07 10:42:56;;;;;;;;;0.50;0.00;;;;;17.41;69.70;102432.91;5011768;28;8828;-66
2022/07/07 10:45:23;;;;;;;;;0.00;0.00;;;;;17.75;68.72;102426.63;5010670;28;9504;-63
2022/07/07 10:47:49;;;;;;;;;0.00;0.00;;;;;18.04;66.69;102440.97;5011357;28;8825;-63
2022/07/07 10:50:31;;;;;;;;;0.00;0.00;;;;;18.06;66.31;102438.88;5011750;28;9042;-66
2022/07/07 10:52:58;;;;;;;;;1.00;0.00;;;;;17.89;66.86;102460.19;5011803;28;8852;-65
2022/07/07 10:55:53;;;;;;;;;0.00;0.00;;;;;17.62;67.63;102478.25;5009869;28;8855;-65
2022/07/07 10:58:55;;;;;;;;;0.25;0.00;;;;;17.51;68.22;102476.13;5011823;28;8902;-65
2022/07/07 11:01:23;;;;;;;;;2.50;1.00;;;;;17.43;68.35;102477.13;5012559;28;8892;-65
2022/07/07 11:03:50;;;;;;;;;2.00;1.00;;;;;17.33;68.50;102487.50;5015897;28;9536;-65
2022/07/07 11:06:17;;;;;;;;;0.00;0.00;;;;;17.20;68.49;102495.59;5019288;28;8889;-66
2022/07/07 11:08:54;;;;;;;;;0.50;0.50;;;;;17.19;68.08;102497.47;5016428;28;8818;-65
2022/07/07 11:11:21;;;;;;;;;1.50;0.75;;;;;17.20;66.77;102493.69;5014523;28;8895;-65
2022/07/07 11:13:47;;;;;;;;;0.25;0.25;;;;;17.20;66.36;102503.75;5008456;28;8825;-65
2022/07/07 11:16:23;;;;;;;;;0.00;0.00;;;;;17.23;66.67;102498.75;5013531;28;9526;-65
2022/07/07 11:18:57;;;;;;;;;1.67;1.67;;;;;17.34;65.82;102496.50;5019311;28;8833;-65
2022/07/07 11:21:44;;;;;;;;;0.75;0.50;;;;;17.38;65.37;102501.38;5021539;28;8903;-65
2022/07/07 11:24:20;;;;;;;;;0.50;0.00;;;;;17.49;64.71;102506.25;5013461;28;8810;-65
2022/07/07 11:27:01;;;;;;;;;1.00;1.00;;;;;17.50;63.98;102510.69;5015827;28;8819;-65
2022/07/07 11:29:28;;;;;;;;;0.75;0.75;;;;;17.45;63.18;102513.13;5014927;28;8902;-65
2022/07/07 11:32:09;;;;;;;;;1.25;0.75;;;;;17.51;63.37;102515.06;5010853;28;8987;-65
2022/07/07 11:34:44;;;;;;;;;3.00;1.00;;;;;17.54;61.79;102524.72;5016463;28;8925;-65
2022/07/07 11:37:25;;;;;;;;;2.00;0.25;;;;;17.54;60.15;102521.97;5015522;28;8835;-65
2022/07/07 11:39:53;;;;;;;;;2.00;2.00;;;;;17.60;59.47;102525.81;5013152;28;8877;-64
2022/07/07 11:42:20;;;;;;;;;3.00;1.50;;;;;17.62;59.05;102523.72;5018895;28;8867;-64